Here is the Quick Look data you requested

The Data originates at the National Weather Service, and is made available here by the UAlbany Department of Atmospheric and Environmental Sciences

Surface Observations

K40B 250216Z AUTO 00000KT M02/M05 A3029 RMK AO1 SLP273 T10221053 51025 P0000
K8B0 250155Z AUTO 20003KT 10SM CLR 02/M03 A3026 RMK AO2=
KAUG 250153Z AUTO 00000KT 10SM CLR 11/02 A3027 RMK AO2 SLP250 T01060022=
KBGR 250153Z 34003KT 10SM CLR 04/M01 A3028 RMK AO2 SLP253 T00441011=
KBHB 250156Z AUTO 00000KT 10SM CLR 06/03 A3029 RMK AO2 SLP262 T00560033=
KCAR 250154Z AUTO 01006KT 10SM CLR 01/M08 A3030 RMK AO2 SLP273 T00061083=
KFVE 250153Z AUTO 36009KT 10SM CLR M02/M12 A3030 RMK AO2 SLP270 T10171117=
KGNR 250156Z AUTO 35006KT 04/M09 A3025 RMK AO1 SLP258 T00391089=
KHUL 250153Z AUTO 00000KT 10SM CLR M01/M03 A3029 RMK AO2 SLP264 T10061033=
KIWI 250153Z AUTO 00000KT 10SM CLR 07/04 A3028 RMK AO2 SLP253 T00670039=
KIZG 250154Z AUTO 00000KT 10SM CLR 07/03 A3025 RMK AO2 SLP248 T00720028=
KLEW 250156Z AUTO 00000KT 10SM CLR 08/04 A3026 RMK AO2 SLP265 T00780044=
KMLT 250153Z AUTO 10004KT 10SM CLR 01/M03 A3030 RMK AO2 SLP270 T00111028 TSNO=
KPQI 250156Z AUTO 36006KT 10SM CLR 02/M09 A3033 RMK AO2 SLP316 T00171089 FZRANO=
KPWM 250151Z VRB05KT 10SM CLR 07/06 A3025 RMK AO2 SLP244 T00720056=
KRKD 250156Z AUTO 00000KT 10SM CLR 05/04 A3028 RMK AO2 SLP254 T00500044=
KSFM 250156Z AUTO 07004KT 10SM CLR 06/04 A3025 RMK AO2 SLP255 T00610044=
KWVL 250156Z AUTO 00000KT 10SM CLR 11/01 A3024 RMK AO2 SLP268 T01060006=